createdAt,value
2018-10-15T00:00:24.722Z,0
2018-10-15T00:01:26.047Z,0
2018-10-15T00:02:27.394Z,0
2018-10-15T00:03:28.778Z,0
2018-10-15T00:04:30.173Z,0
2018-10-15T00:05:31.566Z,0
2018-10-15T00:06:32.960Z,0
2018-10-15T00:07:34.349Z,0
2018-10-15T00:08:35.732Z,0
2018-10-15T00:09:37.123Z,0
2018-10-15T00:10:38.519Z,0
2018-10-15T00:11:39.912Z,0
2018-10-15T00:12:41.303Z,0
2018-10-15T00:13:42.697Z,0
2018-10-15T00:14:44.081Z,0
2018-10-15T00:15:45.473Z,0
2018-10-15T00:16:46.861Z,0
2018-10-15T00:17:48.250Z,0
2018-10-15T00:18:49.641Z,0
2018-10-15T00:19:51.031Z,0
2018-10-15T00:20:52.426Z,0
2018-10-15T00:21:53.817Z,0
2018-10-15T00:22:55.206Z,0
2018-10-15T00:23:56.595Z,0
2018-10-15T00:24:57.987Z,0
2018-10-15T00:25:59.376Z,0
2018-10-15T00:27:00.765Z,0
2018-10-15T00:28:02.158Z,0
2018-10-15T00:29:03.551Z,0
2018-10-15T00:30:04.942Z,0
2018-10-15T00:31:06.335Z,0
2018-10-15T00:32:07.727Z,0
2018-10-15T00:33:09.115Z,0
2018-10-15T00:34:10.505Z,0
2018-10-15T00:35:11.898Z,0
2018-10-15T00:36:13.286Z,0
2018-10-15T00:37:14.676Z,0
2018-10-15T00:38:16.065Z,0
2018-10-15T00:39:17.456Z,0
2018-10-15T00:40:18.852Z,0
2018-10-15T00:41:20.243Z,0
2018-10-15T00:42:21.637Z,0
2018-10-15T00:43:23.032Z,0
2018-10-15T00:44:24.484Z,0
2018-10-15T00:45:25.872Z,0
2018-10-15T00:46:27.260Z,0
2018-10-15T00:47:28.656Z,0
2018-10-15T00:48:30.053Z,0
2018-10-15T00:49:31.454Z,0
2018-10-15T00:50:32.841Z,0
2018-10-15T00:51:34.230Z,0
2018-10-15T00:52:35.619Z,0
2018-10-15T00:53:37.010Z,0
2018-10-15T00:54:38.402Z,0
2018-10-15T00:55:39.792Z,0
2018-10-15T00:56:41.186Z,0
2018-10-15T00:57:42.572Z,0
2018-10-15T00:58:43.964Z,0
2018-10-15T00:59:45.356Z,0
2018-10-15T01:00:46.745Z,0
2018-10-15T01:01:48.136Z,0
2018-10-15T01:02:49.526Z,0
2018-10-15T01:03:50.968Z,0
2018-10-15T01:04:52.308Z,0
2018-10-15T01:05:53.701Z,0
2018-10-15T01:06:55.090Z,0
2018-10-15T01:07:56.482Z,0
2018-10-15T01:08:57.873Z,0
2018-10-15T01:09:59.264Z,0
2018-10-15T01:11:00.658Z,0
2018-10-15T01:12:02.045Z,0
2018-10-15T01:13:03.434Z,0
2018-10-15T01:14:04.829Z,0
2018-10-15T01:15:06.220Z,0
2018-10-15T01:16:07.609Z,0
2018-10-15T01:17:09.001Z,0
2018-10-15T01:18:10.411Z,0
2018-10-15T01:19:11.863Z,0
2018-10-15T01:20:13.196Z,0
2018-10-15T01:21:14.595Z,0
2018-10-15T01:22:15.983Z,0
2018-10-15T01:23:17.372Z,0
2018-10-15T01:24:18.765Z,0
2018-10-15T01:25:20.159Z,0
2018-10-15T01:26:21.545Z,0
2018-10-15T01:27:22.934Z,0
2018-10-15T01:28:24.328Z,0
2018-10-15T01:29:25.722Z,0
2018-10-15T01:30:27.112Z,0
2018-10-15T01:31:28.624Z,0
2018-10-15T01:32:30.038Z,0
2018-10-15T01:33:31.466Z,0
2018-10-15T01:34:32.855Z,0
2018-10-15T01:35:34.245Z,0
2018-10-15T01:36:35.633Z,0
2018-10-15T01:37:37.023Z,0
2018-10-15T01:38:38.413Z,0
2018-10-15T01:39:39.807Z,0
2018-10-15T01:40:41.200Z,0
2018-10-15T01:41:42.587Z,0
2018-10-15T01:42:43.976Z,0
2018-10-15T01:43:45.368Z,0
2018-10-15T01:44:46.759Z,0
2018-10-15T01:45:48.151Z,0
2018-10-15T01:46:49.551Z,0
2018-10-15T01:47:50.939Z,0
2018-10-15T01:48:52.330Z,0
2018-10-15T01:49:53.733Z,0
2018-10-15T01:50:55.124Z,0
2018-10-15T01:51:56.516Z,0
2018-10-15T01:52:57.911Z,0
2018-10-15T01:53:59.304Z,0
2018-10-15T01:55:00.738Z,0
2018-10-15T01:56:02.086Z,0
2018-10-15T01:57:03.477Z,0
2018-10-15T01:58:04.871Z,0
2018-10-15T01:59:06.258Z,0
2018-10-15T02:00:07.650Z,0
2018-10-15T02:01:09.041Z,0
2018-10-15T02:02:10.432Z,0
2018-10-15T02:03:11.825Z,0
2018-10-15T02:04:13.215Z,0
2018-10-15T02:05:14.607Z,0
2018-10-15T02:06:16.019Z,0
2018-10-15T02:07:17.402Z,0
2018-10-15T02:08:18.798Z,0
2018-10-15T02:09:20.187Z,0
2018-10-15T02:10:21.577Z,0
2018-10-15T02:11:22.971Z,0
2018-10-15T02:12:24.362Z,0
2018-10-15T02:13:25.753Z,0
2018-10-15T02:14:27.160Z,0
2018-10-15T02:15:28.540Z,0
2018-10-15T02:16:29.936Z,0
2018-10-15T02:17:31.365Z,0
2018-10-15T02:18:32.815Z,0
2018-10-15T02:19:34.205Z,0
2018-10-15T02:20:35.600Z,0
2018-10-15T02:21:36.997Z,0
2018-10-15T02:22:38.387Z,0
2018-10-15T02:23:39.777Z,0
2018-10-15T02:24:41.166Z,0
2018-10-15T02:25:42.557Z,0
2018-10-15T02:26:43.943Z,0
2018-10-15T02:27:45.332Z,0
2018-10-15T02:28:46.725Z,0
2018-10-15T02:29:48.118Z,0
2018-10-15T02:30:49.506Z,0
2018-10-15T02:31:50.901Z,0
2018-10-15T02:32:52.291Z,0
2018-10-15T02:33:53.685Z,0
2018-10-15T02:34:55.078Z,0
2018-10-15T02:35:56.468Z,0
2018-10-15T02:36:57.862Z,0
2018-10-15T02:37:59.255Z,0
2018-10-15T02:39:00.647Z,0
2018-10-15T02:40:02.044Z,0
2018-10-15T02:41:03.438Z,0
2018-10-15T02:42:04.829Z,0
2018-10-15T02:43:06.219Z,0
2018-10-15T02:44:07.611Z,0
2018-10-15T02:45:09.001Z,0
2018-10-15T02:46:10.389Z,0
2018-10-15T02:47:11.778Z,0
2018-10-15T02:48:13.181Z,0
2018-10-15T02:49:14.576Z,0
2018-10-15T02:50:15.965Z,0
2018-10-15T02:51:17.369Z,0
2018-10-15T02:52:18.760Z,0
2018-10-15T02:53:20.154Z,0
2018-10-15T02:54:21.543Z,0
2018-10-15T02:55:22.933Z,0
2018-10-15T02:56:24.328Z,0
2018-10-15T02:57:25.722Z,0
2018-10-15T02:58:27.118Z,0
2018-10-15T02:59:28.509Z,0
2018-10-15T03:00:29.896Z,0
2018-10-15T03:01:31.284Z,0
2018-10-15T03:02:32.673Z,0
2018-10-15T03:03:34.062Z,0
2018-10-15T03:04:35.502Z,0
2018-10-15T03:05:36.958Z,0
2018-10-15T03:06:38.364Z,0
2018-10-15T03:07:39.735Z,0
2018-10-15T03:08:41.129Z,0
2018-10-15T03:09:42.524Z,0
2018-10-15T03:10:43.914Z,0
2018-10-15T03:11:45.301Z,0
2018-10-15T03:12:46.696Z,0
2018-10-15T03:13:48.089Z,0
2018-10-15T03:14:49.483Z,0
2018-10-15T03:15:50.881Z,0
2018-10-15T03:16:52.272Z,0
2018-10-15T03:17:53.665Z,0
2018-10-15T03:18:55.063Z,0
2018-10-15T03:19:56.473Z,0
2018-10-15T03:20:57.844Z,0
2018-10-15T03:21:59.241Z,0
2018-10-15T03:23:00.633Z,0
2018-10-15T03:24:02.029Z,0
2018-10-15T03:25:03.427Z,0
2018-10-15T03:26:04.825Z,0
2018-10-15T03:27:06.209Z,0
2018-10-15T03:28:07.598Z,0
2018-10-15T03:29:08.993Z,0
2018-10-15T03:30:10.383Z,0
2018-10-15T03:31:11.771Z,0
2018-10-15T03:32:13.160Z,0
2018-10-15T03:33:14.548Z,0
2018-10-15T03:34:15.943Z,0
2018-10-15T03:35:17.331Z,0
2018-10-15T03:36:18.727Z,0
2018-10-15T03:37:20.117Z,0
2018-10-15T03:38:21.506Z,0
2018-10-15T03:39:22.897Z,0
2018-10-15T03:40:24.288Z,0
2018-10-15T03:41:25.682Z,0
2018-10-15T03:42:27.074Z,0
2018-10-15T03:43:28.464Z,0
2018-10-15T03:44:29.855Z,0
2018-10-15T03:45:31.246Z,0
2018-10-15T03:46:32.638Z,0
2018-10-15T03:47:34.031Z,0
2018-10-15T03:48:35.427Z,0
2018-10-15T03:49:36.818Z,0
2018-10-15T03:50:38.203Z,0
2018-10-15T03:51:39.806Z,0
2018-10-15T03:52:41.211Z,0
2018-10-15T03:53:42.593Z,0
2018-10-15T03:54:43.986Z,0
2018-10-15T03:55:45.375Z,0
2018-10-15T03:56:46.765Z,0
2018-10-15T03:57:48.156Z,0
2018-10-15T03:58:49.544Z,0
2018-10-15T03:59:50.934Z,0
2018-10-15T04:00:52.325Z,0
2018-10-15T04:01:53.719Z,0
2018-10-15T04:02:55.110Z,0
2018-10-15T04:03:56.498Z,0
2018-10-15T04:04:57.884Z,0
2018-10-15T04:05:59.281Z,0
2018-10-15T04:07:00.668Z,0
2018-10-15T04:08:02.057Z,0
2018-10-15T04:09:03.448Z,0
2018-10-15T04:10:04.846Z,0
2018-10-15T04:11:06.239Z,0
2018-10-15T04:12:07.625Z,0
2018-10-15T04:13:09.032Z,0
2018-10-15T04:14:10.427Z,0
2018-10-15T04:15:11.815Z,0
2018-10-15T04:16:13.207Z,0
2018-10-15T04:17:14.600Z,0
2018-10-15T04:18:15.990Z,0
2018-10-15T04:19:17.385Z,0
2018-10-15T04:20:18.772Z,0
2018-10-15T04:21:20.163Z,0
2018-10-15T04:22:21.553Z,0
2018-10-15T04:23:22.952Z,0
2018-10-15T04:24:24.345Z,0
2018-10-15T04:25:25.737Z,0
2018-10-15T04:26:27.135Z,0
2018-10-15T04:27:28.530Z,0
2018-10-15T04:28:29.932Z,0
2018-10-15T04:29:31.331Z,0
2018-10-15T04:30:32.717Z,0
2018-10-15T04:31:34.110Z,0
2018-10-15T04:32:35.502Z,0
2018-10-15T04:33:36.893Z,0
2018-10-15T04:34:38.280Z,0
2018-10-15T04:35:39.672Z,0
2018-10-15T04:36:41.065Z,0
2018-10-15T04:37:42.544Z,0
2018-10-15T04:38:43.946Z,0
2018-10-15T04:39:45.333Z,0
2018-10-15T04:40:46.720Z,0
2018-10-15T04:41:48.125Z,0
2018-10-15T04:42:49.497Z,0
2018-10-15T04:43:50.887Z,0
2018-10-15T04:44:52.324Z,0
2018-10-15T04:45:53.714Z,0
2018-10-15T04:46:55.111Z,0
2018-10-15T04:47:56.496Z,0
2018-10-15T04:48:57.891Z,0
2018-10-15T04:49:59.360Z,0
2018-10-15T04:51:00.668Z,0
2018-10-15T04:52:02.079Z,0
2018-10-15T04:53:03.588Z,0
2018-10-15T04:54:04.985Z,0
2018-10-15T04:55:06.395Z,0
2018-10-15T04:56:07.771Z,0
2018-10-15T04:57:09.161Z,0
2018-10-15T04:58:10.550Z,0
2018-10-15T04:59:11.943Z,0
2018-10-15T05:00:13.404Z,0
2018-10-15T05:01:14.765Z,0
2018-10-15T05:02:16.169Z,0
2018-10-15T05:03:18.145Z,0
2018-10-15T05:04:19.534Z,0
2018-10-15T05:05:20.925Z,0
2018-10-15T05:06:22.447Z,0
2018-10-15T05:07:23.706Z,0
2018-10-15T05:08:25.099Z,0
2018-10-15T05:09:26.537Z,0
2018-10-15T05:10:27.885Z,0
2018-10-15T05:11:29.276Z,0
2018-10-15T05:12:30.672Z,0
2018-10-15T05:13:32.065Z,0
2018-10-15T05:14:33.459Z,0
2018-10-15T05:15:34.848Z,0
2018-10-15T05:16:36.236Z,0
2018-10-15T05:17:37.627Z,0
2018-10-15T05:18:39.023Z,0
2018-10-15T05:19:40.417Z,0
2018-10-15T05:20:41.860Z,0
2018-10-15T05:21:43.203Z,0
2018-10-15T05:22:44.598Z,0
2018-10-15T05:23:46.046Z,0
2018-10-15T05:24:47.527Z,0
2018-10-15T05:25:48.913Z,0
2018-10-15T05:26:50.305Z,0
2018-10-15T05:27:51.692Z,0
2018-10-15T05:28:53.087Z,0
2018-10-15T05:29:54.486Z,0
2018-10-15T05:30:55.881Z,0
2018-10-15T05:31:57.269Z,0
2018-10-15T05:32:58.659Z,0
2018-10-15T05:34:00.050Z,0
2018-10-15T05:35:01.438Z,0
2018-10-15T05:36:02.861Z,0
2018-10-15T05:37:04.209Z,0
2018-10-15T05:38:05.597Z,0
2018-10-15T05:39:06.984Z,0
2018-10-15T05:40:08.371Z,0
2018-10-15T05:41:09.762Z,0
2018-10-15T05:42:11.177Z,0
2018-10-15T05:43:12.542Z,0
2018-10-15T05:44:13.930Z,0
2018-10-15T05:45:15.397Z,0
2018-10-15T05:46:16.789Z,0
2018-10-15T05:47:18.177Z,0
2018-10-15T05:48:19.651Z,0
2018-10-15T05:49:20.972Z,0
2018-10-15T05:50:22.359Z,0
2018-10-15T05:51:23.748Z,0
2018-10-15T05:52:25.142Z,0
2018-10-15T05:53:26.532Z,0
2018-10-15T05:54:27.926Z,0
2018-10-15T05:55:29.333Z,0
2018-10-15T05:56:30.722Z,0
2018-10-15T05:57:32.118Z,0
2018-10-15T05:58:33.504Z,0
2018-10-15T05:59:34.898Z,0
2018-10-15T06:00:36.290Z,0
2018-10-15T06:01:37.679Z,0
2018-10-15T06:02:39.068Z,0
2018-10-15T06:03:40.462Z,0
2018-10-15T06:04:41.852Z,0
2018-10-15T06:05:43.242Z,0
2018-10-15T06:06:44.633Z,5
2018-10-15T06:07:46.029Z,5
2018-10-15T06:08:47.439Z,5
2018-10-15T06:09:48.835Z,5
2018-10-15T06:10:50.399Z,5
2018-10-15T06:11:51.791Z,5
2018-10-15T06:12:53.197Z,5
2018-10-15T06:13:54.585Z,5
2018-10-15T06:14:55.984Z,5
2018-10-15T06:15:57.380Z,5
2018-10-15T06:16:58.782Z,11
2018-10-15T06:18:00.199Z,11
2018-10-15T06:19:01.567Z,11
2018-10-15T06:20:02.958Z,11
2018-10-15T06:21:04.350Z,11
2018-10-15T06:22:05.742Z,11
2018-10-15T06:23:07.143Z,11
2018-10-15T06:24:08.552Z,11
2018-10-15T06:25:09.960Z,16
2018-10-15T06:26:11.358Z,16
2018-10-15T06:27:12.755Z,16
2018-10-15T06:28:14.159Z,16
2018-10-15T06:29:15.542Z,16
2018-10-15T06:30:16.999Z,16
2018-10-15T06:31:18.344Z,22
2018-10-15T06:32:19.751Z,22
2018-10-15T06:33:21.160Z,22
2018-10-15T06:34:22.558Z,22
2018-10-15T06:35:23.946Z,22
2018-10-15T06:36:25.337Z,22
2018-10-15T06:37:26.832Z,28
2018-10-15T06:38:28.126Z,28
2018-10-15T06:39:29.525Z,28
2018-10-15T06:40:30.920Z,28
2018-10-15T06:41:32.312Z,28
2018-10-15T06:42:33.708Z,28
2018-10-15T06:43:35.126Z,28
2018-10-15T06:44:36.504Z,28
2018-10-15T06:45:37.895Z,28
2018-10-15T06:46:39.291Z,28
2018-10-15T06:47:40.689Z,33
2018-10-15T06:48:42.100Z,33
2018-10-15T06:49:43.495Z,33
2018-10-15T06:50:44.893Z,33
2018-10-15T06:51:46.285Z,33
2018-10-15T06:52:47.690Z,39
2018-10-15T06:53:49.133Z,39
2018-10-15T06:54:50.481Z,39
2018-10-15T06:55:51.887Z,39
2018-10-15T06:56:53.356Z,45
2018-10-15T06:57:54.776Z,45
2018-10-15T06:58:56.186Z,45
2018-10-15T06:59:57.636Z,50
2018-10-15T07:00:59.005Z,50
2018-10-15T07:02:00.409Z,50
2018-10-15T07:03:01.797Z,50
2018-10-15T07:04:03.211Z,56
2018-10-15T07:05:04.577Z,56
2018-10-15T07:06:05.983Z,56
2018-10-15T07:07:07.432Z,56
2018-10-15T07:08:08.763Z,56
2018-10-15T07:09:10.225Z,56
2018-10-15T07:10:11.616Z,56
2018-10-15T07:11:12.954Z,56
2018-10-15T07:12:14.403Z,56
2018-10-15T07:13:15.803Z,56
2018-10-15T07:14:17.207Z,56
2018-10-15T07:15:18.541Z,56
2018-10-15T07:16:20.030Z,56
2018-10-15T07:17:21.341Z,56
2018-10-15T07:18:22.766Z,56
2018-10-15T07:19:24.121Z,56
2018-10-15T07:20:25.522Z,56
2018-10-15T07:21:26.916Z,56
2018-10-15T07:22:28.310Z,56
2018-10-15T07:23:29.711Z,56
2018-10-15T07:24:31.112Z,56
2018-10-15T07:25:32.529Z,56
2018-10-15T07:26:33.920Z,56
2018-10-15T07:27:35.312Z,61
2018-10-15T07:28:36.707Z,61
2018-10-15T07:29:38.110Z,61
2018-10-15T07:30:39.505Z,61
2018-10-15T07:31:40.898Z,61
2018-10-15T07:32:42.293Z,67
2018-10-15T07:33:43.763Z,67
2018-10-15T07:34:45.096Z,67
2018-10-15T07:35:46.496Z,67
2018-10-15T07:36:47.894Z,67
2018-10-15T07:37:49.283Z,73
2018-10-15T07:38:50.677Z,73
2018-10-15T07:39:52.070Z,73
2018-10-15T07:40:53.463Z,73
2018-10-15T07:41:54.857Z,78
2018-10-15T07:42:56.414Z,73
2018-10-15T07:43:57.808Z,73
2018-10-15T07:44:59.206Z,73
2018-10-15T07:46:00.680Z,73
2018-10-15T07:47:02.001Z,73
2018-10-15T07:48:03.443Z,67
2018-10-15T07:49:04.792Z,67
2018-10-15T07:50:06.217Z,67
2018-10-15T07:51:07.587Z,73
2018-10-15T07:52:09.002Z,67
2018-10-15T07:53:10.397Z,73
2018-10-15T07:54:11.780Z,73
2018-10-15T07:55:13.163Z,73
2018-10-15T07:56:14.567Z,73
2018-10-15T07:57:15.956Z,73
2018-10-15T07:58:17.418Z,73
2018-10-15T07:59:18.833Z,73
2018-10-15T08:00:20.149Z,73
2018-10-15T08:01:21.532Z,73
2018-10-15T08:02:23.034Z,78
2018-10-15T08:03:24.329Z,78
2018-10-15T08:04:25.798Z,78
2018-10-15T08:05:27.176Z,78
2018-10-15T08:06:28.526Z,73
2018-10-15T08:07:29.918Z,67
2018-10-15T08:08:31.470Z,67
2018-10-15T08:09:32.706Z,67
2018-10-15T08:10:34.108Z,67
2018-10-15T08:11:35.505Z,73
2018-10-15T08:12:36.908Z,73
2018-10-15T08:13:38.312Z,73
2018-10-15T08:14:39.744Z,73
2018-10-15T08:15:41.205Z,67
2018-10-15T08:16:42.502Z,67
2018-10-15T08:17:43.915Z,67
2018-10-15T08:18:45.294Z,67
2018-10-15T08:19:46.697Z,67
2018-10-15T08:20:48.176Z,67
2018-10-15T08:21:49.489Z,67
2018-10-15T08:22:50.880Z,73
2018-10-15T08:23:52.282Z,78
2018-10-15T08:24:53.690Z,78
2018-10-15T08:25:55.081Z,84
2018-10-15T08:26:56.481Z,78
2018-10-15T08:27:58.067Z,73
2018-10-15T08:28:59.495Z,73
2018-10-15T08:30:00.886Z,78
2018-10-15T08:31:02.277Z,84
2018-10-15T08:32:03.672Z,90
2018-10-15T08:33:05.069Z,90
2018-10-15T08:34:06.464Z,78
2018-10-15T08:35:07.864Z,67
2018-10-15T08:36:09.263Z,67
2018-10-15T08:37:10.665Z,95
2018-10-15T08:38:12.061Z,101
2018-10-15T08:39:13.460Z,101
2018-10-15T08:40:14.858Z,106
2018-10-15T08:41:16.309Z,106
2018-10-15T08:42:17.690Z,112
2018-10-15T08:43:19.075Z,123
2018-10-15T08:44:20.479Z,129
2018-10-15T08:45:21.880Z,123
2018-10-15T08:46:23.279Z,129
2018-10-15T08:47:24.693Z,135
2018-10-15T08:48:26.088Z,135
2018-10-15T08:49:27.495Z,140
2018-10-15T08:50:28.967Z,146
2018-10-15T08:51:30.288Z,151
2018-10-15T08:52:31.735Z,157
2018-10-15T08:53:33.087Z,163
2018-10-15T08:54:34.490Z,168
2018-10-15T08:55:35.889Z,168
2018-10-15T08:56:37.290Z,174
2018-10-15T08:57:38.694Z,174
2018-10-15T08:58:40.090Z,180
2018-10-15T08:59:41.495Z,180
2018-10-15T09:00:42.888Z,191
2018-10-15T09:01:44.347Z,185
2018-10-15T09:02:45.747Z,185
2018-10-15T09:03:47.101Z,185
2018-10-15T09:04:48.507Z,185
2018-10-15T09:05:49.900Z,185
2018-10-15T09:06:51.349Z,191
2018-10-15T09:07:52.851Z,191
2018-10-15T09:08:54.180Z,191
2018-10-15T09:09:55.507Z,196
2018-10-15T09:10:56.943Z,196
2018-10-15T09:11:58.335Z,196
2018-10-15T09:12:59.775Z,196
2018-10-15T09:14:01.159Z,202
2018-10-15T09:15:02.554Z,202
2018-10-15T09:16:04.009Z,208
2018-10-15T09:17:05.350Z,213
2018-10-15T09:18:06.801Z,219
2018-10-15T09:19:08.149Z,236
2018-10-15T09:20:09.557Z,298
2018-10-15T09:21:10.982Z,1186
2018-10-15T09:22:12.365Z,2188
2018-10-15T09:23:13.775Z,2272
2018-10-15T09:24:15.181Z,1771
2018-10-15T09:25:16.587Z,1063
2018-10-15T09:26:17.986Z,545
2018-10-15T09:27:19.559Z,680
2018-10-15T09:28:20.807Z,1355
2018-10-15T09:29:23.073Z,1687
2018-10-15T09:30:23.571Z,1721
2018-10-15T09:31:24.999Z,1732
2018-10-15T09:32:26.387Z,1485
2018-10-15T09:33:27.874Z,1209
2018-10-15T09:34:29.198Z,1006
2018-10-15T09:35:30.625Z,928
2018-10-15T09:36:32.000Z,883
2018-10-15T09:37:33.407Z,1226
2018-10-15T09:38:34.885Z,1625
2018-10-15T09:39:36.225Z,1771
2018-10-15T09:40:37.625Z,1839
2018-10-15T09:41:39.098Z,1856
2018-10-15T09:42:40.485Z,1850
2018-10-15T09:43:41.889Z,1929
2018-10-15T09:44:43.281Z,2013
2018-10-15T09:45:44.715Z,2047
2018-10-15T09:46:46.162Z,2058
2018-10-15T09:47:47.466Z,2041
2018-10-15T09:48:48.881Z,1980
2018-10-15T09:49:50.310Z,2008
2018-10-15T09:50:51.732Z,1968
2018-10-15T09:51:53.100Z,2120
2018-10-15T09:52:54.559Z,2137
2018-10-15T09:53:55.920Z,2053
2018-10-15T09:54:57.386Z,2171
2018-10-15T09:55:58.838Z,1957
2018-10-15T09:57:00.342Z,2205
2018-10-15T09:58:01.777Z,1957
2018-10-15T09:59:03.182Z,1845
2018-10-15T10:00:04.555Z,2103
2018-10-15T10:01:06.011Z,2008
2018-10-15T10:02:07.491Z,2160
2018-10-15T10:03:08.826Z,2171
2018-10-15T10:04:10.235Z,2115
2018-10-15T10:05:11.646Z,2081
2018-10-15T10:06:13.082Z,2098
2018-10-15T10:07:14.473Z,1732
2018-10-15T10:08:15.881Z,1327
2018-10-15T10:09:17.291Z,1479
2018-10-15T10:10:18.696Z,1130
2018-10-15T10:11:20.106Z,967
2018-10-15T10:12:21.516Z,1125
2018-10-15T10:13:22.929Z,1085
2018-10-15T10:14:24.373Z,1023
2018-10-15T10:15:25.742Z,1006
2018-10-15T10:16:27.145Z,1479
2018-10-15T10:17:28.673Z,2176
2018-10-15T10:18:30.023Z,2266
2018-10-15T10:19:31.324Z,2216
2018-10-15T10:20:32.740Z,2165
2018-10-15T10:21:34.150Z,2295
2018-10-15T10:22:35.560Z,2351
2018-10-15T10:23:36.968Z,2317
2018-10-15T10:24:38.377Z,2345
2018-10-15T10:25:39.785Z,2390
2018-10-15T10:26:41.199Z,2385
2018-10-15T10:27:42.600Z,2435
2018-10-15T10:28:44.135Z,2385
2018-10-15T10:29:45.489Z,2385
2018-10-15T10:30:46.858Z,2385
2018-10-15T10:31:48.233Z,2452
2018-10-15T10:32:49.668Z,2508
2018-10-15T10:33:51.013Z,2520
2018-10-15T10:34:52.517Z,2475
2018-10-15T10:35:53.864Z,2475
2018-10-15T10:36:55.266Z,2503
2018-10-15T10:37:56.661Z,2503
2018-10-15T10:38:58.124Z,2559
2018-10-15T10:39:59.596Z,2542
2018-10-15T10:41:00.997Z,2621
2018-10-15T10:42:02.394Z,2598
2018-10-15T10:43:03.780Z,2598
2018-10-15T10:44:05.221Z,2553
2018-10-15T10:45:06.604Z,2643
2018-10-15T10:46:08.023Z,2531
2018-10-15T10:47:09.447Z,2390
2018-10-15T10:48:10.835Z,2407
2018-10-15T10:49:12.246Z,2368
2018-10-15T10:50:13.660Z,2351
2018-10-15T10:51:15.069Z,2340
2018-10-15T10:52:16.476Z,1788
2018-10-15T10:53:17.890Z,984
2018-10-15T10:54:19.301Z,703
2018-10-15T10:55:20.706Z,517
2018-10-15T10:56:22.113Z,438
2018-10-15T10:57:23.522Z,421
2018-10-15T10:58:24.992Z,410
2018-10-15T10:59:26.359Z,405
2018-10-15T11:00:27.751Z,399
2018-10-15T11:01:29.157Z,393
2018-10-15T11:02:30.584Z,393
2018-10-15T11:03:31.971Z,399
2018-10-15T11:04:33.468Z,405
2018-10-15T11:05:34.783Z,714
2018-10-15T11:06:36.183Z,1524
2018-10-15T11:07:37.589Z,1929
2018-10-15T11:08:39.080Z,1794
2018-10-15T11:09:40.416Z,1276
2018-10-15T11:10:41.805Z,720
2018-10-15T11:11:43.213Z,427
2018-10-15T11:12:44.620Z,405
2018-10-15T11:13:46.021Z,410
2018-10-15T11:14:47.431Z,399
2018-10-15T11:15:48.834Z,393
2018-10-15T11:16:50.236Z,382
2018-10-15T11:17:51.641Z,382
2018-10-15T11:18:53.086Z,371
2018-10-15T11:19:54.453Z,371
2018-10-15T11:20:55.863Z,365
2018-10-15T11:21:57.376Z,360
2018-10-15T11:22:58.828Z,360
2018-10-15T11:24:00.261Z,354
2018-10-15T11:25:01.602Z,360
2018-10-15T11:26:03.001Z,354
2018-10-15T11:27:04.411Z,354
2018-10-15T11:28:05.836Z,354
2018-10-15T11:29:07.240Z,354
2018-10-15T11:30:08.645Z,354
2018-10-15T11:31:10.050Z,348
2018-10-15T11:32:11.451Z,348
2018-10-15T11:33:12.860Z,348
2018-10-15T11:34:14.349Z,348
2018-10-15T11:35:15.665Z,348
2018-10-15T11:36:17.065Z,343
2018-10-15T11:37:18.469Z,343
2018-10-15T11:38:19.872Z,343
2018-10-15T11:39:21.280Z,343
2018-10-15T11:40:22.709Z,343
2018-10-15T11:41:24.113Z,343
2018-10-15T11:42:25.516Z,343
2018-10-15T11:43:26.990Z,343
2018-10-15T11:44:28.322Z,343
2018-10-15T11:45:29.739Z,343
2018-10-15T11:46:31.187Z,343
2018-10-15T11:47:32.541Z,343
2018-10-15T11:48:33.945Z,343
2018-10-15T11:49:35.344Z,337
2018-10-15T11:50:36.748Z,337
2018-10-15T11:51:38.164Z,337
2018-10-15T11:52:39.573Z,337
2018-10-15T11:53:41.066Z,337
2018-10-15T11:54:42.380Z,337
2018-10-15T11:55:43.791Z,331
2018-10-15T11:56:45.191Z,331
2018-10-15T11:57:46.600Z,331
2018-10-15T11:58:48.012Z,331
2018-10-15T11:59:49.407Z,331
2018-10-15T12:00:50.807Z,331
2018-10-15T12:01:52.210Z,331
2018-10-15T12:02:53.615Z,331
2018-10-15T12:03:55.014Z,326
2018-10-15T12:04:56.584Z,326
2018-10-15T12:05:58.011Z,326
2018-10-15T12:06:59.413Z,326
2018-10-15T12:08:00.833Z,326
2018-10-15T12:09:02.225Z,326
2018-10-15T12:10:03.627Z,320
2018-10-15T12:11:05.054Z,320
2018-10-15T12:12:06.436Z,320
2018-10-15T12:13:07.833Z,320
2018-10-15T12:14:09.246Z,320
2018-10-15T12:15:10.646Z,320
2018-10-15T12:16:12.051Z,320
2018-10-15T12:17:13.462Z,315
2018-10-15T12:18:14.873Z,315
2018-10-15T12:19:16.274Z,315
2018-10-15T12:20:17.675Z,315
2018-10-15T12:21:19.080Z,315
2018-10-15T12:22:20.487Z,315
2018-10-15T12:23:21.905Z,315
2018-10-15T12:24:23.301Z,309
2018-10-15T12:25:24.703Z,309
2018-10-15T12:26:26.100Z,315
2018-10-15T12:27:27.501Z,309
2018-10-15T12:28:28.904Z,309
2018-10-15T12:29:30.312Z,309
2018-10-15T12:30:31.713Z,303
2018-10-15T12:31:33.121Z,303
2018-10-15T12:32:34.516Z,303
2018-10-15T12:33:35.921Z,303
2018-10-15T12:34:37.321Z,298
2018-10-15T12:35:38.725Z,298
2018-10-15T12:36:40.134Z,298
2018-10-15T12:37:41.537Z,298
2018-10-15T12:38:42.940Z,303
2018-10-15T12:39:44.342Z,298
2018-10-15T12:40:45.757Z,298
2018-10-15T12:41:47.165Z,292
2018-10-15T12:42:48.568Z,298
2018-10-15T12:43:49.974Z,292
2018-10-15T12:44:51.376Z,292
2018-10-15T12:45:52.798Z,292
2018-10-15T12:46:54.228Z,292
2018-10-15T12:47:55.776Z,292
2018-10-15T12:48:57.293Z,292
2018-10-15T12:49:58.691Z,286
2018-10-15T12:51:00.100Z,286
2018-10-15T12:52:01.502Z,286
2018-10-15T12:53:02.906Z,286
2018-10-15T12:54:04.314Z,281
2018-10-15T12:55:05.712Z,281
2018-10-15T12:56:07.113Z,281
2018-10-15T12:57:08.585Z,281
2018-10-15T12:58:09.934Z,281
2018-10-15T12:59:11.343Z,281
2018-10-15T13:00:12.750Z,275
2018-10-15T13:01:14.147Z,281
2018-10-15T13:02:15.554Z,275
2018-10-15T13:03:16.966Z,281
2018-10-15T13:04:18.383Z,275
2018-10-15T13:05:19.780Z,275
2018-10-15T13:06:21.185Z,275
2018-10-15T13:07:22.599Z,275
2018-10-15T13:08:24.012Z,275
2018-10-15T13:09:25.415Z,275
2018-10-15T13:10:26.816Z,275
2018-10-15T13:11:28.229Z,275
2018-10-15T13:12:29.633Z,270
2018-10-15T13:13:31.095Z,270
2018-10-15T13:14:32.442Z,247
2018-10-15T13:15:33.844Z,264
2018-10-15T13:16:35.554Z,258
2018-10-15T13:17:36.931Z,270
2018-10-15T13:18:38.345Z,270
2018-10-15T13:19:39.747Z,270
2018-10-15T13:20:41.151Z,264
2018-10-15T13:21:42.569Z,258
2018-10-15T13:22:44.011Z,258
2018-10-15T13:23:45.416Z,258
2018-10-15T13:24:46.820Z,258
2018-10-15T13:25:48.222Z,253
2018-10-15T13:26:49.704Z,253
2018-10-15T13:27:51.111Z,253
2018-10-15T13:28:52.518Z,185
2018-10-15T13:29:53.916Z,208
2018-10-15T13:30:55.322Z,236
2018-10-15T13:31:56.911Z,247
2018-10-15T13:32:58.390Z,247
2018-10-15T13:33:59.755Z,236
2018-10-15T13:35:01.154Z,236
2018-10-15T13:36:02.583Z,225
2018-10-15T13:37:03.977Z,213
2018-10-15T13:38:05.381Z,208
2018-10-15T13:39:06.783Z,225
2018-10-15T13:40:08.185Z,225
2018-10-15T13:41:09.589Z,230
2018-10-15T13:42:10.994Z,230
2018-10-15T13:43:12.395Z,230
2018-10-15T13:44:13.806Z,225
2018-10-15T13:45:15.372Z,225
2018-10-15T13:46:16.610Z,225
2018-10-15T13:47:18.012Z,230
2018-10-15T13:48:19.442Z,230
2018-10-15T13:49:20.847Z,230
2018-10-15T13:50:22.248Z,230
2018-10-15T13:51:23.649Z,230
2018-10-15T13:52:25.055Z,225
2018-10-15T13:53:26.458Z,225
2018-10-15T13:54:27.860Z,225
2018-10-15T13:55:29.265Z,219
2018-10-15T13:56:30.666Z,219
2018-10-15T13:57:32.070Z,219
2018-10-15T13:58:33.467Z,225
2018-10-15T13:59:34.872Z,185
2018-10-15T14:00:36.273Z,174
2018-10-15T14:01:37.690Z,185
2018-10-15T14:02:39.083Z,202
2018-10-15T14:03:40.482Z,208
2018-10-15T14:04:41.885Z,208
2018-10-15T14:05:43.289Z,208
2018-10-15T14:06:44.691Z,202
2018-10-15T14:07:46.095Z,202
2018-10-15T14:08:47.520Z,185
2018-10-15T14:09:48.920Z,185
2018-10-15T14:10:50.328Z,174
2018-10-15T14:11:51.759Z,174
2018-10-15T14:12:53.145Z,168
2018-10-15T14:13:54.564Z,151
2018-10-15T14:14:55.942Z,146
2018-10-15T14:15:57.499Z,157
2018-10-15T14:16:58.895Z,140
2018-10-15T14:18:00.293Z,135
2018-10-15T14:19:01.706Z,135
2018-10-15T14:20:03.108Z,146
2018-10-15T14:21:04.529Z,140
2018-10-15T14:22:05.934Z,135
2018-10-15T14:23:07.376Z,135
2018-10-15T14:24:08.757Z,129
2018-10-15T14:25:10.163Z,135
2018-10-15T14:26:11.571Z,135
2018-10-15T14:27:12.975Z,140
2018-10-15T14:28:14.390Z,146
2018-10-15T14:29:15.793Z,146
2018-10-15T14:30:17.255Z,140
2018-10-15T14:31:18.642Z,140
2018-10-15T14:32:20.072Z,135
2018-10-15T14:33:21.489Z,135